Parma — V2OZ9 — position and weather

sailwx.info

Track history (hours):
 
Tides and Currents Weather Stations Pressure Air Temp Water Temp Dewpoint Dewpoint Depression Visibility Wind Speed Wind Dir Waves Ship Positions

Parma

Last reported at 2014-Oct-02 05:30 UTC. Time now 2014-Oct-02 16:31 UTC.
Position N 37°36' E 024°07'.

MMSI: 279073176.

Date/timePositionNaut miles runAvg speedWind from/ knotsBaromVisibWave heightAir tempDewpointWater temp
2014-Oct-02 05:30N 37°36' E 024°07'113 9.9
2014-Oct-01 18:03N 39°12' E 025°23'1510.2
2014-Oct-01 16:33N 39°26' E 025°32'1010.5
2014-Oct-01 15:33N 39°35' E 025°38'118 9.1
2014-Oct-01 02:33N 40°47' E 027°40'49 9.4
2014-Sep-30 21:20N 40°43' E 028°45'810.4
2014-Sep-30 20:31N 40°44' E 028°56'10 9.9
2014-Sep-30 19:33N 40°44' E 029°08'10 9.6
2014-Sep-30 18:33N 40°45' E 029°21'  
2014-Sep-26 03:28N 40°26' E 029°06'17 8.2
2014-Sep-26 01:25N 40°31' E 028°45'  
2014-Sep-22 19:06N 37°28' E 024°08'8 9.6
2014-Sep-22 18:13N 37°21' E 024°03'7 9.9
2014-Sep-22 17:33N 37°15' E 023°58'1010.1
2014-Sep-22 16:34N 37°07' E 023°51'1010.0
2014-Sep-22 15:34N 36°59' E 023°44'10 9.8
2014-Sep-22 14:33N 36°51' E 023°38'1010.0
2014-Sep-22 13:33N 36°42' E 023°31'9 9.6
2014-Sep-22 12:34N 36°35' E 023°24'10 9.6
2014-Sep-22 11:34N 36°27' E 023°17'  
Track history (hours):
 
Tides and Currents Weather Stations Pressure Air Temp Water Temp Dewpoint Dewpoint Depression Visibility Wind Speed Wind Dir Waves Ship Positions

Parma

Last reported at 2014-Oct-02 05:30 UTC. Time now 2014-Oct-02 16:31 UTC.
Position N 37°36' E 024°07'.

MMSI: 279073176.

Date/timePositionNaut miles runAvg speedWind from/ knotsBaromVisibWave heightAir tempDewpointWater temp
2014-Oct-02 05:30N 37°36' E 024°07'113 9.9
2014-Oct-01 18:03N 39°12' E 025°23'1510.2
2014-Oct-01 16:33N 39°26' E 025°32'1010.5
2014-Oct-01 15:33N 39°35' E 025°38'118 9.1
2014-Oct-01 02:33N 40°47' E 027°40'49 9.4
2014-Sep-30 21:20N 40°43' E 028°45'810.4
2014-Sep-30 20:31N 40°44' E 028°56'10 9.9
2014-Sep-30 19:33N 40°44' E 029°08'10 9.6
2014-Sep-30 18:33N 40°45' E 029°21'  
2014-Sep-26 03:28N 40°26' E 029°06'17 8.2
2014-Sep-26 01:25N 40°31' E 028°45'  
2014-Sep-22 19:06N 37°28' E 024°08'8 9.6
2014-Sep-22 18:13N 37°21' E 024°03'7 9.9
2014-Sep-22 17:33N 37°15' E 023°58'1010.1
2014-Sep-22 16:34N 37°07' E 023°51'1010.0
2014-Sep-22 15:34N 36°59' E 023°44'10 9.8
2014-Sep-22 14:33N 36°51' E 023°38'1010.0
2014-Sep-22 13:33N 36°42' E 023°31'9 9.6
2014-Sep-22 12:34N 36°35' E 023°24'10 9.6
2014-Sep-22 11:34N 36°27' E 023°17'  

Dump ship's entire track history